createdAt,value
2022-11-24T00:01:24.112Z,-2.16
2022-11-24T00:03:59.271Z,-2.17
2022-11-24T00:06:26.844Z,-2.30
2022-11-24T00:08:55.205Z,-2.18
2022-11-24T00:11:28.761Z,-2.76
2022-11-24T00:13:57.538Z,-2.11
2022-11-24T00:16:27.780Z,-2.14
2022-11-24T00:18:58.710Z,-2.31
2022-11-24T00:21:27.654Z,-2.12
2022-11-24T00:23:55.353Z,-2.08
2022-11-24T00:26:28.738Z,-2.19
2022-11-24T00:28:58.867Z,-2.33
2022-11-24T00:31:31.810Z,-2.22
2022-11-24T00:34:02.112Z,-2.32
2022-11-24T00:36:32.226Z,-2.43
2022-11-24T00:39:05.359Z,-2.38
2022-11-24T00:41:33.198Z,-2.34
2022-11-24T00:44:01.056Z,-3.04
2022-11-24T00:46:29.006Z,-2.27
2022-11-24T00:48:56.931Z,-2.35
2022-11-24T00:51:30.518Z,-2.57
2022-11-24T00:53:59.147Z,-2.34
2022-11-24T00:56:27.715Z,-2.38
2022-11-24T00:58:55.701Z,-2.29
2022-11-24T01:01:25.628Z,-2.27
2022-11-24T01:03:55.266Z,-2.28
2022-11-24T01:06:25.684Z,-2.27
2022-11-24T01:08:53.450Z,-2.31
2022-11-24T01:11:24.855Z,-2.41
2022-11-24T01:13:56.152Z,-2.49
2022-11-24T01:16:33.517Z,-2.46
2022-11-24T01:19:01.932Z,-2.51
2022-11-24T01:21:29.623Z,-2.51
2022-11-24T01:23:57.855Z,-2.44
2022-11-24T01:26:25.411Z,-2.52
2022-11-24T01:28:54.865Z,-2.59
2022-11-24T01:31:23.284Z,-2.88
2022-11-24T01:33:51.103Z,-3.50
2022-11-24T01:36:18.884Z,-2.93
2022-11-24T01:38:46.364Z,-2.98
2022-11-24T01:41:24.776Z,-2.99
2022-11-24T01:43:54.069Z,-3.08
2022-11-24T01:46:42.867Z,-3.52
2022-11-24T01:49:28.058Z,-3.73
2022-11-24T01:52:01.581Z,-3.21
2022-11-24T01:54:33.773Z,-3.16
2022-11-24T01:57:10.110Z,-3.63
2022-11-24T01:59:37.748Z,-3.10
2022-11-24T02:02:05.846Z,-3.13
2022-11-24T02:04:35.102Z,-3.07
2022-11-24T02:07:06.226Z,-3.12
2022-11-24T02:09:46.110Z,-3.14
2022-11-24T02:12:13.686Z,-3.20
2022-11-24T02:14:43.418Z,-3.20
2022-11-24T02:17:11.183Z,-3.17
2022-11-24T02:19:41.454Z,-3.17
2022-11-24T02:22:20.848Z,-3.17
2022-11-24T02:24:52.306Z,-3.13
2022-11-24T02:27:20.227Z,-3.16
2022-11-24T02:29:48.977Z,-3.06
2022-11-24T02:32:16.932Z,-3.98
2022-11-24T02:34:44.446Z,-2.98
2022-11-24T02:37:11.916Z,-3.07
2022-11-24T02:39:39.250Z,-3.66
2022-11-24T02:42:11.051Z,-3.18
2022-11-24T02:44:44.572Z,-3.28
2022-11-24T02:47:13.464Z,-3.84
2022-11-24T02:49:41.529Z,-3.76
2022-11-24T02:52:09.312Z,-3.37
2022-11-24T02:54:37.239Z,-3.89
2022-11-24T02:57:04.671Z,-3.52
2022-11-24T02:59:32.255Z,-3.35
2022-11-24T03:01:59.596Z,-3.31
2022-11-24T03:04:27.076Z,-3.21
2022-11-24T03:06:54.904Z,-3.34
2022-11-24T03:09:22.465Z,-3.50
2022-11-24T03:11:49.864Z,-3.51
2022-11-24T03:14:17.488Z,-3.53
2022-11-24T03:16:45.069Z,-3.62
2022-11-24T03:19:12.451Z,-3.67
2022-11-24T03:21:40.028Z,-3.64
2022-11-24T03:24:07.649Z,-3.80
2022-11-24T03:26:35.851Z,-4.23
2022-11-24T03:29:03.615Z,-3.63
2022-11-24T03:31:30.992Z,-3.57
2022-11-24T03:33:58.580Z,-3.56
2022-11-24T03:36:26.404Z,-3.55
2022-11-24T03:38:53.728Z,-3.84
2022-11-24T03:41:21.197Z,-3.60
2022-11-24T03:43:48.758Z,-3.57
2022-11-24T03:46:16.161Z,-3.56
2022-11-24T03:48:43.840Z,-3.49
2022-11-24T03:51:11.491Z,-3.52
2022-11-24T03:53:38.917Z,-3.58
2022-11-24T03:56:06.979Z,-3.63
2022-11-24T03:58:34.771Z,-3.55
2022-11-24T04:01:02.342Z,-3.66
2022-11-24T04:03:30.233Z,-3.94
2022-11-24T04:05:57.951Z,-3.68
2022-11-24T04:08:25.571Z,-3.77
2022-11-24T04:10:54.515Z,-3.72
2022-11-24T04:13:24.200Z,-3.66
2022-11-24T04:15:52.302Z,-3.68
2022-11-24T04:18:20.131Z,-3.59
2022-11-24T04:20:51.048Z,-4.24
2022-11-24T04:23:19.341Z,-3.60
2022-11-24T04:25:46.607Z,-3.63
2022-11-24T04:28:14.072Z,-3.78
2022-11-24T04:30:45.057Z,-3.66
2022-11-24T04:33:13.511Z,-3.68
2022-11-24T04:35:41.201Z,-3.68
2022-11-24T04:38:08.664Z,-3.66
2022-11-24T04:40:36.191Z,-4.04
2022-11-24T04:43:05.568Z,-3.49
2022-11-24T04:45:32.905Z,-3.50
2022-11-24T04:48:00.332Z,-3.46
2022-11-24T04:50:28.295Z,-3.41
2022-11-24T04:52:55.954Z,-3.45
2022-11-24T04:55:23.278Z,-3.55
2022-11-24T04:57:50.855Z,-3.60
2022-11-24T05:00:18.759Z,-3.46
2022-11-24T05:02:46.103Z,-3.49
2022-11-24T05:05:13.786Z,-3.55
2022-11-24T05:07:41.489Z,-3.45
2022-11-24T05:10:27.846Z,-3.43
2022-11-24T05:12:57.206Z,-3.38
2022-11-24T05:15:24.571Z,-3.37
2022-11-24T05:17:52.385Z,-3.45
2022-11-24T05:20:20.395Z,-3.49
2022-11-24T05:22:48.095Z,-3.61
2022-11-24T05:25:16.097Z,-3.52
2022-11-24T05:27:43.322Z,-4.07
2022-11-24T05:30:11.262Z,-3.71
2022-11-24T05:32:38.778Z,-3.68
2022-11-24T05:35:06.831Z,-4.63
2022-11-24T05:37:34.175Z,-3.63
2022-11-24T05:40:01.842Z,-3.58
2022-11-24T05:42:47.244Z,-3.67
2022-11-24T05:45:21.153Z,-3.70
2022-11-24T05:47:49.674Z,-4.45
2022-11-24T05:50:18.351Z,-3.44
2022-11-24T05:52:46.348Z,-3.76
2022-11-24T05:55:19.593Z,-3.34
2022-11-24T05:57:46.981Z,-3.42
2022-11-24T06:00:15.964Z,-3.39
2022-11-24T06:02:43.434Z,-3.42
2022-11-24T06:05:10.843Z,-4.00
2022-11-24T06:07:38.563Z,-3.33
2022-11-24T06:10:06.241Z,-3.31
2022-11-24T06:12:33.595Z,-3.31
2022-11-24T06:15:01.193Z,-3.31
2022-11-24T06:17:29.203Z,-3.92
2022-11-24T06:19:56.634Z,-4.07
2022-11-24T06:22:24.326Z,-3.09
2022-11-24T06:24:51.947Z,-3.49
2022-11-24T06:27:19.589Z,-3.12
2022-11-24T06:29:47.041Z,-3.07
2022-11-24T06:32:14.636Z,-3.20
2022-11-24T06:34:42.074Z,-3.71
2022-11-24T06:37:09.764Z,-3.61
2022-11-24T06:39:37.586Z,-3.01
2022-11-24T06:42:05.156Z,-3.02
2022-11-24T06:44:32.950Z,-3.57
2022-11-24T06:47:00.332Z,-3.20
2022-11-24T06:49:27.937Z,-3.72
2022-11-24T06:51:56.154Z,-3.28
2022-11-24T06:54:23.584Z,-3.30
2022-11-24T06:56:56.023Z,-3.61
2022-11-24T06:59:23.415Z,-3.26
2022-11-24T07:01:51.014Z,-3.29
2022-11-24T07:04:18.288Z,-3.20
2022-11-24T07:06:46.055Z,-3.25
2022-11-24T07:09:14.696Z,-3.81
2022-11-24T07:11:42.257Z,-3.28
2022-11-24T07:14:10.360Z,-3.31
2022-11-24T07:16:39.160Z,-3.68
2022-11-24T07:19:06.421Z,-3.22
2022-11-24T07:21:33.751Z,-3.82
2022-11-24T07:24:01.179Z,-3.24
2022-11-24T07:26:28.741Z,-3.18
2022-11-24T07:28:56.137Z,-3.13
2022-11-24T07:31:26.573Z,-3.54
2022-11-24T07:33:55.757Z,-2.98
2022-11-24T07:36:24.115Z,-3.69
2022-11-24T07:38:51.752Z,-3.59
2022-11-24T07:41:20.464Z,-3.59
2022-11-24T07:43:48.991Z,-2.97
2022-11-24T07:46:19.363Z,-2.76
2022-11-24T07:48:47.224Z,-2.91
2022-11-24T07:51:16.070Z,-2.72
2022-11-24T07:53:43.600Z,-2.88
2022-11-24T07:56:11.145Z,-2.77
2022-11-24T07:58:39.143Z,-2.71
2022-11-24T08:01:11.717Z,-3.18
2022-11-24T08:03:39.910Z,-2.85
2022-11-24T08:06:23.558Z,-2.85
2022-11-24T08:08:53.389Z,-2.86
2022-11-24T08:11:20.728Z,-2.79
2022-11-24T08:13:48.139Z,-3.01
2022-11-24T08:16:18.366Z,-2.80
2022-11-24T08:18:51.295Z,-2.89
2022-11-24T08:21:19.302Z,-2.91
2022-11-24T08:23:46.911Z,-2.88
2022-11-24T08:26:19.063Z,-2.75
2022-11-24T08:28:47.750Z,-2.54
2022-11-24T08:31:18.949Z,-2.28
2022-11-24T08:33:46.800Z,-2.31
2022-11-24T08:36:16.883Z,-2.39
2022-11-24T08:38:44.959Z,-2.96
2022-11-24T08:41:14.792Z,-2.11
2022-11-24T08:43:42.732Z,-1.90
2022-11-24T08:46:17.278Z,-1.78
2022-11-24T08:48:51.513Z,-1.69
2022-11-24T08:51:22.038Z,-1.83
2022-11-24T08:53:49.830Z,-1.95
2022-11-24T08:56:17.618Z,-1.82
2022-11-24T08:58:45.122Z,-2.40
2022-11-24T09:01:17.354Z,-1.90
2022-11-24T09:03:50.701Z,-1.95
2022-11-24T09:06:23.146Z,-2.03
2022-11-24T09:08:51.997Z,-2.00
2022-11-24T09:11:19.952Z,-1.91
2022-11-24T09:13:47.357Z,-2.01
2022-11-24T09:16:23.529Z,-2.07
2022-11-24T09:19:05.749Z,-2.20
2022-11-24T09:21:34.645Z,-2.23
2022-11-24T09:24:02.294Z,-2.35
2022-11-24T09:26:34.633Z,-2.46
2022-11-24T09:29:04.407Z,-2.35
2022-11-24T09:31:34.667Z,-2.37
2022-11-24T09:34:07.553Z,-2.39
2022-11-24T09:36:35.603Z,-2.38
2022-11-24T09:39:03.167Z,-2.31
2022-11-24T09:41:55.091Z,-2.81
2022-11-24T09:44:49.335Z,-2.36
2022-11-24T09:47:33.191Z,-2.49
2022-11-24T09:50:10.840Z,-2.43
2022-11-24T09:52:45.855Z,-2.37
2022-11-24T09:55:36.526Z,-2.39
2022-11-24T09:58:24.724Z,-2.22
2022-11-24T10:00:54.698Z,-2.25
2022-11-24T10:03:34.031Z,-2.27
2022-11-24T10:06:05.519Z,-2.40
2022-11-24T10:08:39.162Z,-2.55
2022-11-24T10:11:16.124Z,-2.38
2022-11-24T10:13:52.401Z,-2.92
2022-11-24T10:16:45.747Z,-2.82
2022-11-24T10:19:37.104Z,-2.92
2022-11-24T10:22:23.784Z,-2.90
2022-11-24T10:25:13.981Z,-2.89
2022-11-24T10:27:57.548Z,-3.17
2022-11-24T10:30:25.162Z,-3.06
2022-11-24T10:33:17.860Z,-3.14
2022-11-24T10:35:50.803Z,-3.62
2022-11-24T10:38:49.496Z,-3.06
2022-11-24T10:41:32.238Z,-3.25
2022-11-24T10:43:59.837Z,-3.04
2022-11-24T10:46:32.471Z,-3.09
2022-11-24T10:49:05.666Z,-2.98
2022-11-24T10:52:01.539Z,-2.95
2022-11-24T10:54:29.510Z,-2.94
2022-11-24T10:56:56.843Z,-3.05
2022-11-24T10:59:40.028Z,-3.25
2022-11-24T11:02:30.145Z,-3.37
2022-11-24T11:04:57.922Z,-3.95
2022-11-24T11:07:26.779Z,-3.35
2022-11-24T11:10:23.277Z,-3.35
2022-11-24T11:12:50.906Z,-3.44
2022-11-24T11:15:31.513Z,-3.36
2022-11-24T11:18:02.341Z,-3.48
2022-11-24T11:20:34.380Z,-3.55
2022-11-24T11:23:14.263Z,-3.50
2022-11-24T11:25:43.958Z,-3.50
2022-11-24T11:28:18.303Z,-3.54
2022-11-24T11:31:22.244Z,-3.65
2022-11-24T11:34:13.899Z,-3.72
2022-11-24T11:36:52.976Z,-3.67
2022-11-24T11:39:29.355Z,-3.71
2022-11-24T11:42:37.946Z,-3.71
2022-11-24T11:45:05.613Z,-3.68
2022-11-24T11:47:57.514Z,-4.15
2022-11-24T11:50:30.793Z,-3.80
2022-11-24T11:53:16.514Z,-3.89
2022-11-24T11:55:57.224Z,-3.89
2022-11-24T11:58:27.774Z,-3.85
2022-11-24T12:01:16.007Z,-3.85
2022-11-24T12:03:56.643Z,-3.82
2022-11-24T12:06:42.522Z,-3.79
2022-11-24T12:09:49.968Z,-3.86
2022-11-24T12:12:20.095Z,-3.83
2022-11-24T12:15:10.721Z,-3.83
2022-11-24T12:18:04.883Z,-3.85
2022-11-24T12:20:32.384Z,-3.80
2022-11-24T12:23:24.495Z,-3.88
2022-11-24T12:26:02.653Z,-3.92
2022-11-24T12:28:39.686Z,-4.55
2022-11-24T12:31:45.540Z,-3.95
2022-11-24T12:34:15.667Z,-3.90
2022-11-24T12:36:56.573Z,-3.96
2022-11-24T12:39:41.941Z,-4.72
2022-11-24T12:42:21.218Z,-3.87
2022-11-24T12:45:09.795Z,-3.94
2022-11-24T12:48:04.013Z,-4.00
2022-11-24T12:50:37.476Z,-4.00
2022-11-24T12:53:16.627Z,-3.65
2022-11-24T12:55:44.832Z,-3.71
2022-11-24T12:58:25.167Z,-3.77
2022-11-24T13:01:25.237Z,-3.81
2022-11-24T13:04:30.088Z,-3.92
2022-11-24T13:07:11.577Z,-4.00
2022-11-24T13:10:01.112Z,-4.14
2022-11-24T13:12:29.990Z,-4.04
2022-11-24T13:14:57.982Z,-4.00
2022-11-24T13:17:43.496Z,-3.99
2022-11-24T13:20:19.940Z,-3.99
2022-11-24T13:22:56.381Z,-4.04
2022-11-24T13:25:25.680Z,-3.95
2022-11-24T13:27:55.569Z,-4.02
2022-11-24T13:30:35.376Z,-4.00
2022-11-24T13:33:16.148Z,-4.16
2022-11-24T13:36:03.438Z,-4.03
2022-11-24T13:38:45.822Z,-3.94
2022-11-24T13:41:32.174Z,-3.94
2022-11-24T13:44:25.508Z,-4.45
2022-11-24T13:47:06.839Z,-3.90
2022-11-24T13:49:42.152Z,-4.86
2022-11-24T13:52:40.536Z,-3.92
2022-11-24T13:55:14.287Z,-3.95
2022-11-24T13:57:43.180Z,-4.06
2022-11-24T14:00:31.071Z,-4.13
2022-11-24T14:03:29.382Z,-4.13
2022-11-24T14:05:57.806Z,-4.37
2022-11-24T14:08:37.089Z,-4.59
2022-11-24T14:11:13.400Z,-4.10
2022-11-24T14:13:41.050Z,-4.24
2022-11-24T14:16:11.391Z,-4.24
2022-11-24T14:18:41.187Z,-4.50
2022-11-24T14:21:20.843Z,-4.35
2022-11-24T14:23:57.040Z,-4.52
2022-11-24T14:26:31.662Z,-4.41
2022-11-24T14:29:15.166Z,-4.41
2022-11-24T14:31:44.199Z,-4.45
2022-11-24T14:34:11.623Z,-4.46
2022-11-24T14:36:40.207Z,-4.57
2022-11-24T14:39:11.515Z,-4.99
2022-11-24T14:41:39.131Z,-4.49
2022-11-24T14:44:11.963Z,-4.55
2022-11-24T14:46:39.802Z,-5.11
2022-11-24T14:49:08.059Z,-4.90
2022-11-24T14:51:44.893Z,-4.90
2022-11-24T14:54:21.441Z,-4.86
2022-11-24T14:57:04.729Z,-4.94
2022-11-24T14:59:36.342Z,-4.89
2022-11-24T15:02:24.594Z,-4.85
2022-11-24T15:05:06.420Z,-4.93
2022-11-24T15:07:38.679Z,-4.91
2022-11-24T15:10:19.296Z,-4.85
2022-11-24T15:12:57.045Z,-4.98
2022-11-24T15:15:37.447Z,-4.95
2022-11-24T15:18:07.047Z,-4.98
2022-11-24T15:20:44.780Z,-4.90
2022-11-24T15:23:18.226Z,-4.88
2022-11-24T15:25:45.612Z,-5.05
2022-11-24T15:28:12.841Z,-5.14
2022-11-24T15:30:40.774Z,-4.96
2022-11-24T15:33:18.716Z,-4.98
2022-11-24T15:35:48.401Z,-5.81
2022-11-24T15:38:16.692Z,-5.12
2022-11-24T15:40:46.084Z,-5.10
2022-11-24T15:43:25.690Z,-5.11
2022-11-24T15:45:53.136Z,-5.12
2022-11-24T15:48:20.432Z,-5.63
2022-11-24T15:50:48.698Z,-5.11
2022-11-24T15:53:20.346Z,-5.08
2022-11-24T15:55:48.862Z,-5.64
2022-11-24T15:58:16.913Z,-5.00
2022-11-24T16:00:44.961Z,-5.22
2022-11-24T16:03:45.143Z,-4.91
2022-11-24T16:06:00.106Z,-5.61
2022-11-24T16:08:27.540Z,-5.55
2022-11-24T16:10:54.837Z,-5.06
2022-11-24T16:13:22.476Z,-5.79
2022-11-24T16:15:50.113Z,-5.17
2022-11-24T16:18:17.635Z,-5.28
2022-11-24T16:20:45.176Z,-5.69
2022-11-24T16:23:12.559Z,-5.56
2022-11-24T16:25:40.353Z,-5.10
2022-11-24T16:28:08.086Z,-5.23
2022-11-24T16:30:35.669Z,-5.38
2022-11-24T16:33:06.880Z,-5.99
2022-11-24T16:35:34.592Z,-4.90
2022-11-24T16:38:01.802Z,-4.97
2022-11-24T16:40:28.971Z,-4.96
2022-11-24T16:42:58.267Z,-5.37
2022-11-24T16:45:26.027Z,-5.39
2022-11-24T16:47:53.390Z,-5.48
2022-11-24T16:50:21.144Z,-5.38
2022-11-24T16:52:48.438Z,-5.13
2022-11-24T16:55:15.675Z,-5.13
2022-11-24T16:57:43.761Z,-5.08
2022-11-24T17:00:11.765Z,-5.14
2022-11-24T17:02:39.110Z,-5.22
2022-11-24T17:05:07.149Z,-5.67
2022-11-24T17:07:34.790Z,-5.35
2022-11-24T17:10:02.011Z,-5.76
2022-11-24T17:12:30.993Z,-5.65
2022-11-24T17:15:30.579Z,-5.22
2022-11-24T17:18:16.234Z,-5.17
2022-11-24T17:20:36.155Z,-5.58
2022-11-24T17:23:03.854Z,-5.28
2022-11-24T17:25:32.720Z,-5.28
2022-11-24T17:27:59.964Z,-5.30
2022-11-24T17:30:27.569Z,-5.24
2022-11-24T17:32:56.937Z,-5.29
2022-11-24T17:35:24.308Z,-6.07
2022-11-24T17:37:51.956Z,-5.54
2022-11-24T17:40:34.690Z,-5.17
2022-11-24T17:43:02.454Z,-5.39
2022-11-24T17:45:30.841Z,-5.17
2022-11-24T17:48:01.241Z,-5.98
2022-11-24T17:50:28.732Z,-5.34
2022-11-24T17:52:56.084Z,-5.40
2022-11-24T17:55:26.421Z,-5.42
2022-11-24T17:57:54.259Z,-6.17
2022-11-24T18:00:21.813Z,-5.50
2022-11-24T18:02:49.466Z,-6.05
2022-11-24T18:05:17.610Z,-5.79
2022-11-24T18:07:45.196Z,-5.37
2022-11-24T18:10:12.681Z,-5.43
2022-11-24T18:12:40.947Z,-5.49
2022-11-24T18:15:08.801Z,-5.57
2022-11-24T18:17:36.298Z,-5.40
2022-11-24T18:20:05.909Z,-5.46
2022-11-24T18:23:03.900Z,-5.40
2022-11-24T18:25:22.270Z,-5.62
2022-11-24T18:27:50.084Z,-5.29
2022-11-24T18:30:17.725Z,-5.28
2022-11-24T18:32:45.589Z,-5.39
2022-11-24T18:35:13.265Z,-6.21
2022-11-24T18:37:44.415Z,-5.52
2022-11-24T18:40:12.204Z,-6.11
2022-11-24T18:42:40.736Z,-5.49
2022-11-24T18:45:08.618Z,-5.49
2022-11-24T18:47:36.319Z,-5.47
2022-11-24T18:50:04.125Z,-5.47
2022-11-24T18:52:32.041Z,-5.84
2022-11-24T18:55:04.122Z,-5.35
2022-11-24T18:57:31.916Z,-5.38
2022-11-24T18:59:59.372Z,-5.36
2022-11-24T19:02:27.366Z,-5.82
2022-11-24T19:04:54.872Z,-5.40
2022-11-24T19:07:22.395Z,-5.40
2022-11-24T19:09:49.818Z,-5.38
2022-11-24T19:12:17.544Z,-5.35
2022-11-24T19:14:45.132Z,-5.51
2022-11-24T19:17:12.900Z,-5.25
2022-11-24T19:19:40.433Z,-5.68
2022-11-24T19:22:08.908Z,-5.05
2022-11-24T19:24:37.021Z,-4.99
2022-11-24T19:27:05.246Z,-5.00
2022-11-24T19:29:32.732Z,-5.05
2022-11-24T19:32:00.646Z,-5.08
2022-11-24T19:34:28.320Z,-5.03
2022-11-24T19:36:55.566Z,-4.95
2022-11-24T19:39:23.265Z,-4.82
2022-11-24T19:41:51.163Z,-5.33
2022-11-24T19:44:18.412Z,-4.95
2022-11-24T19:46:46.242Z,-5.11
2022-11-24T19:49:13.711Z,-5.11
2022-11-24T19:51:41.374Z,-5.05
2022-11-24T19:54:13.550Z,-5.04
2022-11-24T19:56:42.245Z,-4.90
2022-11-24T19:59:10.085Z,-4.82
2022-11-24T20:01:40.585Z,-4.89
2022-11-24T20:04:13.734Z,-5.75
2022-11-24T20:06:43.380Z,-5.26
2022-11-24T20:09:15.736Z,-5.85
2022-11-24T20:11:43.359Z,-5.28
2022-11-24T20:14:13.360Z,-5.25
2022-11-24T20:16:41.758Z,-5.37
2022-11-24T20:19:15.005Z,-5.17
2022-11-24T20:21:46.440Z,-5.17
2022-11-24T20:24:25.033Z,-5.14
2022-11-24T20:26:58.343Z,-5.14
2022-11-24T20:29:26.048Z,-5.39
2022-11-24T20:31:55.303Z,-5.08
2022-11-24T20:34:23.485Z,-5.02
2022-11-24T20:36:53.180Z,-5.05
2022-11-24T20:39:26.415Z,-5.17
2022-11-24T20:41:55.515Z,-5.15
2022-11-24T20:44:26.146Z,-5.15
2022-11-24T20:46:57.346Z,-5.14
2022-11-24T20:49:25.247Z,-5.30
2022-11-24T20:51:57.402Z,-5.38
2022-11-24T20:54:25.076Z,-5.44
2022-11-24T20:56:52.516Z,-5.33
2022-11-24T20:59:22.910Z,-5.31
2022-11-24T21:01:51.920Z,-5.38
2022-11-24T21:04:24.254Z,-5.47
2022-11-24T21:06:51.539Z,-5.42
2022-11-24T21:09:19.556Z,-5.34
2022-11-24T21:11:46.938Z,-5.43
2022-11-24T21:14:14.473Z,-5.33
2022-11-24T21:16:42.968Z,-5.87
2022-11-24T21:19:12.955Z,-5.34
2022-11-24T21:21:42.908Z,-5.32
2022-11-24T21:24:13.226Z,-5.42
2022-11-24T21:26:41.497Z,-6.33
2022-11-24T21:29:09.192Z,-5.31
2022-11-24T21:31:38.874Z,-6.00
2022-11-24T21:34:07.135Z,-5.22
2022-11-24T21:36:35.324Z,-5.28
2022-11-24T21:39:04.201Z,-5.49
2022-11-24T21:41:33.546Z,-5.32
2022-11-24T21:44:01.095Z,-5.26
2022-11-24T21:46:30.558Z,-5.31
2022-11-24T21:48:58.106Z,-5.99
2022-11-24T21:51:25.283Z,-5.36
2022-11-24T21:53:53.998Z,-5.92
2022-11-24T21:56:22.946Z,-5.34
2022-11-24T21:58:52.223Z,-5.18
2022-11-24T22:01:22.038Z,-5.18
2022-11-24T22:03:50.238Z,-5.20
2022-11-24T22:06:19.304Z,-5.18
2022-11-24T22:08:48.053Z,-5.06
2022-11-24T22:11:18.588Z,-5.02
2022-11-24T22:13:46.505Z,-4.97
2022-11-24T22:16:17.639Z,-6.11
2022-11-24T22:18:45.974Z,-5.14
2022-11-24T22:21:24.046Z,-5.14
2022-11-24T22:23:55.028Z,-5.14
2022-11-24T22:26:23.939Z,-5.19
2022-11-24T22:28:51.906Z,-5.24
2022-11-24T22:31:32.937Z,-5.05
2022-11-24T22:34:01.179Z,-5.33
2022-11-24T22:36:30.238Z,-5.19
2022-11-24T22:39:04.918Z,-5.11
2022-11-24T22:41:33.810Z,-5.18
2022-11-24T22:44:01.388Z,-5.22
2022-11-24T22:46:30.627Z,-5.28
2022-11-24T22:49:00.175Z,-5.26
2022-11-24T22:51:33.327Z,-5.34
2022-11-24T22:54:03.822Z,-5.18
2022-11-24T22:56:34.898Z,-5.23
2022-11-24T22:59:03.066Z,-5.30
2022-11-24T23:01:32.120Z,-5.33
2022-11-24T23:03:59.927Z,-5.29
2022-11-24T23:06:29.642Z,-5.19
2022-11-24T23:08:58.246Z,-5.21
2022-11-24T23:11:37.220Z,-5.33
2022-11-24T23:14:08.542Z,-5.41
2022-11-24T23:16:36.460Z,-5.42
2022-11-24T23:19:04.103Z,-5.44
2022-11-24T23:21:33.744Z,-5.37
2022-11-24T23:24:03.059Z,-5.53
2022-11-24T23:26:33.297Z,-5.54
2022-11-24T23:29:00.670Z,-5.56
2022-11-24T23:31:29.262Z,-5.54
2022-11-24T23:33:58.865Z,-5.51
2022-11-24T23:36:27.284Z,-5.54
2022-11-24T23:38:54.893Z,-5.63
2022-11-24T23:41:24.713Z,-5.63
2022-11-24T23:43:52.648Z,-5.68
2022-11-24T23:46:23.205Z,-5.59
2022-11-24T23:48:52.109Z,-5.56
2022-11-24T23:51:28.279Z,-5.62
2022-11-24T23:53:55.482Z,-5.74
2022-11-24T23:56:25.659Z,-5.73
2022-11-24T23:58:53.092Z,-5.99
